createdAt,value
2019-03-22T00:00:33.479Z,308.51
2019-03-22T00:01:33.395Z,308.70
2019-03-22T00:02:33.427Z,308.50
2019-03-22T00:03:33.402Z,307.81
2019-03-22T00:04:33.418Z,308.24
2019-03-22T00:05:33.377Z,307.52
2019-03-22T00:06:33.389Z,307.62
2019-03-22T00:07:33.355Z,308.66
2019-03-22T00:08:33.339Z,307.96
2019-03-22T00:09:33.332Z,308.06
2019-03-22T00:10:33.313Z,308.74
2019-03-22T00:11:33.354Z,308.23
2019-03-22T00:12:33.390Z,308.55
2019-03-22T00:13:33.285Z,308.60
2019-03-22T00:14:33.255Z,309.59
2019-03-22T00:15:33.290Z,309.10
2019-03-22T00:16:33.244Z,309.09
2019-03-22T00:17:33.247Z,308.10
2019-03-22T00:18:33.242Z,308.22
2019-03-22T00:19:33.220Z,307.91
2019-03-22T00:20:33.228Z,308.08
2019-03-22T00:21:33.182Z,308.74
2019-03-22T00:22:33.158Z,308.62
2019-03-22T00:23:33.270Z,307.72
2019-03-22T00:24:33.215Z,308.05
2019-03-22T00:25:33.183Z,307.69
2019-03-22T00:26:33.141Z,308.36
2019-03-22T00:27:33.136Z,307.76
2019-03-22T00:28:33.109Z,308.08
2019-03-22T00:29:33.156Z,308.31
2019-03-22T00:30:33.117Z,307.92
2019-03-22T00:31:33.088Z,308.19
2019-03-22T00:32:33.070Z,307.52
2019-03-22T00:33:33.044Z,308.22
2019-03-22T00:34:33.079Z,308.58
2019-03-22T00:35:33.032Z,308.78
2019-03-22T00:36:33.054Z,308.72
2019-03-22T00:37:33.048Z,308.07
2019-03-22T00:38:33.016Z,307.73
2019-03-22T00:39:33.017Z,307.67
2019-03-22T00:40:32.982Z,308.05
2019-03-22T00:41:32.968Z,308.19
2019-03-22T00:42:32.983Z,308.31
2019-03-22T00:43:32.970Z,307.85
2019-03-22T00:44:33.022Z,308.42
2019-03-22T00:45:32.934Z,307.98
2019-03-22T00:46:32.924Z,307.56
2019-03-22T00:47:32.920Z,308.18
2019-03-22T00:48:32.937Z,308.54
2019-03-22T00:49:32.897Z,307.90
2019-03-22T00:50:41.806Z,307.65
2019-03-22T00:51:32.843Z,307.81
2019-03-22T00:52:32.858Z,308.02
2019-03-22T00:53:32.841Z,307.59
2019-03-22T00:54:32.821Z,308.58
2019-03-22T00:55:32.817Z,307.59
2019-03-22T00:56:32.846Z,308.48
2019-03-22T00:57:32.790Z,308.24
2019-03-22T00:58:32.770Z,308.28
2019-03-22T00:59:32.767Z,307.57
2019-03-22T01:00:32.748Z,307.58
2019-03-22T01:01:32.762Z,308.32
2019-03-22T01:02:32.767Z,307.63
2019-03-22T01:03:32.742Z,308.12
2019-03-22T01:04:32.756Z,308.29
2019-03-22T01:05:32.708Z,308.79
2019-03-22T01:06:32.727Z,308.43
2019-03-22T01:07:32.692Z,308.61
2019-03-22T01:08:32.680Z,308.30
2019-03-22T01:09:32.654Z,309.05
2019-03-22T01:10:32.663Z,308.70
2019-03-22T01:11:32.697Z,308.61
2019-03-22T01:12:32.675Z,308.61
2019-03-22T01:13:32.612Z,308.58
2019-03-22T01:14:32.610Z,309.00
2019-03-22T01:15:32.626Z,308.61
2019-03-22T01:16:32.628Z,308.32
2019-03-22T01:17:32.579Z,308.17
2019-03-22T01:18:41.838Z,308.34
2019-03-22T01:19:32.563Z,308.40
2019-03-22T01:20:32.562Z,307.82
2019-03-22T01:21:32.543Z,308.09
2019-03-22T01:22:32.865Z,307.32
2019-03-22T01:23:32.509Z,308.00
2019-03-22T01:24:32.510Z,307.69
2019-03-22T01:25:32.510Z,307.61
2019-03-22T01:26:32.473Z,307.71
2019-03-22T01:27:40.290Z,307.08
2019-03-22T01:28:33.459Z,307.16
2019-03-22T01:29:32.459Z,307.06
2019-03-22T01:30:32.453Z,307.11
2019-03-22T01:31:32.431Z,307.15
2019-03-22T01:32:32.414Z,307.22
2019-03-22T01:33:32.433Z,306.85
2019-03-22T01:34:32.393Z,307.28
2019-03-22T01:35:32.406Z,307.30
2019-03-22T01:36:32.415Z,306.76
2019-03-22T01:37:32.375Z,307.13
2019-03-22T01:38:32.375Z,306.96
2019-03-22T01:39:32.337Z,307.04
2019-03-22T01:40:32.324Z,306.90
2019-03-22T01:41:32.339Z,306.71
2019-03-22T01:42:32.328Z,306.69
2019-03-22T01:43:32.312Z,306.40
2019-03-22T01:44:32.332Z,306.49
2019-03-22T01:45:32.292Z,306.40
2019-03-22T01:46:32.263Z,305.46
2019-03-22T01:47:32.282Z,306.46
2019-03-22T01:48:32.267Z,306.57
2019-03-22T01:49:32.281Z,306.47
2019-03-22T01:50:32.238Z,306.13
2019-03-22T01:51:32.221Z,306.58
2019-03-22T01:52:32.218Z,306.57
2019-03-22T01:53:32.193Z,306.26
2019-03-22T01:54:32.195Z,306.20
2019-03-22T01:55:32.195Z,306.20
2019-03-22T01:56:32.167Z,306.12
2019-03-22T01:57:32.160Z,306.56
2019-03-22T01:58:32.160Z,306.79
2019-03-22T01:59:32.130Z,306.30
2019-03-22T02:00:32.130Z,306.27
2019-03-22T02:01:32.120Z,306.21
2019-03-22T02:02:32.092Z,306.46
2019-03-22T02:03:32.094Z,306.33
2019-03-22T02:04:32.091Z,306.92
2019-03-22T02:05:32.156Z,306.60
2019-03-22T02:06:32.044Z,306.51
2019-03-22T02:07:32.043Z,306.28
2019-03-22T02:08:32.063Z,307.13
2019-03-22T02:09:32.012Z,306.80
2019-03-22T02:10:32.002Z,306.65
2019-03-22T02:11:32.042Z,306.67
2019-03-22T02:12:32.012Z,306.69
2019-03-22T02:13:31.991Z,306.94
2019-03-22T02:14:31.956Z,306.63
2019-03-22T02:15:31.948Z,306.60
2019-03-22T02:16:31.967Z,306.97
2019-03-22T02:17:31.933Z,306.99
2019-03-22T02:18:31.920Z,307.93
2019-03-22T02:19:31.910Z,307.99
2019-03-22T02:20:31.908Z,307.41
2019-03-22T02:21:31.905Z,307.06
2019-03-22T02:22:31.907Z,306.69
2019-03-22T02:23:31.876Z,307.08
2019-03-22T02:24:31.865Z,306.82
2019-03-22T02:25:31.864Z,306.68
2019-03-22T02:26:31.844Z,306.80
2019-03-22T02:27:31.839Z,307.37
2019-03-22T02:28:31.827Z,307.41
2019-03-22T02:29:31.823Z,306.20
2019-03-22T02:30:31.815Z,306.61
2019-03-22T02:31:31.782Z,307.84
2019-03-22T02:32:31.782Z,308.04
2019-03-22T02:33:31.778Z,306.98
2019-03-22T02:34:31.773Z,307.82
2019-03-22T02:35:31.750Z,307.49
2019-03-22T02:36:31.741Z,307.85
2019-03-22T02:37:31.726Z,307.71
2019-03-22T02:38:31.765Z,307.13
2019-03-22T02:39:31.819Z,307.19
2019-03-22T02:40:31.697Z,308.10
2019-03-22T02:41:31.687Z,307.00
2019-03-22T02:42:31.684Z,307.15
2019-03-22T02:43:31.671Z,307.37
2019-03-22T02:44:31.664Z,307.19
2019-03-22T02:45:31.633Z,307.28
2019-03-22T02:46:31.645Z,306.97
2019-03-22T02:47:31.665Z,308.10
2019-03-22T02:48:31.638Z,307.08
2019-03-22T02:49:31.609Z,307.44
2019-03-22T02:50:31.586Z,307.22
2019-03-22T02:51:31.581Z,307.21
2019-03-22T02:52:31.561Z,307.34
2019-03-22T02:53:31.587Z,306.99
2019-03-22T02:54:31.565Z,307.08
2019-03-22T02:55:31.543Z,307.96
2019-03-22T02:56:31.532Z,307.03
2019-03-22T02:57:31.540Z,307.84
2019-03-22T02:58:31.502Z,307.44
2019-03-22T02:59:31.519Z,308.10
2019-03-22T03:00:31.473Z,306.84
2019-03-22T03:01:31.484Z,306.07
2019-03-22T03:02:31.471Z,307.24
2019-03-22T03:03:31.443Z,306.65
2019-03-22T03:04:31.472Z,307.12
2019-03-22T03:05:31.425Z,307.06
2019-03-22T03:06:31.422Z,307.49
2019-03-22T03:07:31.410Z,307.20
2019-03-22T03:08:31.386Z,306.88
2019-03-22T03:09:31.392Z,306.86
2019-03-22T03:10:31.402Z,306.53
2019-03-22T03:11:31.363Z,306.17
2019-03-22T03:12:31.342Z,305.77
2019-03-22T03:13:31.346Z,306.16
2019-03-22T03:14:31.348Z,306.45
2019-03-22T03:15:31.337Z,306.76
2019-03-22T03:16:31.352Z,306.41
2019-03-22T03:17:31.321Z,306.74
2019-03-22T03:18:31.289Z,306.35
2019-03-22T03:19:31.274Z,305.76
2019-03-22T03:20:31.275Z,305.79
2019-03-22T03:21:31.253Z,306.84
2019-03-22T03:22:31.253Z,306.14
2019-03-22T03:23:31.232Z,305.47
2019-03-22T03:24:31.225Z,305.23
2019-03-22T03:25:31.229Z,305.36
2019-03-22T03:26:31.219Z,305.56
2019-03-22T03:27:31.196Z,305.79
2019-03-22T03:28:37.108Z,305.60
2019-03-22T03:29:32.159Z,305.26
2019-03-22T03:30:31.222Z,305.31
2019-03-22T03:31:31.196Z,305.49
2019-03-22T03:32:31.139Z,306.65
2019-03-22T03:33:31.135Z,306.46
2019-03-22T03:34:31.119Z,305.97
2019-03-22T03:35:31.104Z,306.36
2019-03-22T03:36:34.625Z,305.81
2019-03-22T03:37:31.075Z,305.70
2019-03-22T03:38:31.058Z,305.63
2019-03-22T03:39:31.064Z,307.63
2019-03-22T03:40:31.070Z,307.08
2019-03-22T03:41:31.066Z,308.26
2019-03-22T03:42:31.024Z,306.95
2019-03-22T03:43:31.042Z,306.59
2019-03-22T03:44:31.000Z,306.25
2019-03-22T03:45:30.996Z,306.06
2019-03-22T03:46:30.975Z,306.35
2019-03-22T03:47:31.001Z,306.51
2019-03-22T03:48:30.992Z,305.79
2019-03-22T03:49:30.994Z,307.01
2019-03-22T03:50:30.942Z,305.76
2019-03-22T03:51:30.929Z,306.71
2019-03-22T03:52:30.914Z,305.94
2019-03-22T03:53:30.944Z,305.75
2019-03-22T03:54:30.904Z,306.05
2019-03-22T03:55:30.934Z,305.48
2019-03-22T03:56:30.873Z,305.83
2019-03-22T03:57:30.861Z,305.82
2019-03-22T03:58:30.887Z,305.45
2019-03-22T03:59:30.851Z,305.11
2019-03-22T04:00:30.822Z,306.27
2019-03-22T04:01:30.897Z,305.59
2019-03-22T04:02:30.855Z,305.72
2019-03-22T04:03:30.829Z,305.21
2019-03-22T04:04:30.808Z,305.69
2019-03-22T04:05:30.796Z,305.77
2019-03-22T04:06:30.798Z,305.69
2019-03-22T04:07:30.759Z,305.39
2019-03-22T04:08:30.786Z,305.40
2019-03-22T04:09:30.754Z,306.69
2019-03-22T04:10:30.739Z,305.63
2019-03-22T04:11:30.738Z,305.99
2019-03-22T04:12:30.714Z,305.42
2019-03-22T04:13:30.714Z,306.13
2019-03-22T04:14:30.732Z,306.18
2019-03-22T04:15:30.685Z,305.71
2019-03-22T04:16:30.691Z,305.71
2019-03-22T04:17:30.665Z,305.54
2019-03-22T04:18:30.652Z,306.21
2019-03-22T04:19:30.639Z,306.18
2019-03-22T04:20:30.633Z,304.62
2019-03-22T04:21:30.619Z,305.13
2019-03-22T04:22:30.609Z,304.77
2019-03-22T04:23:30.587Z,305.21
2019-03-22T04:24:30.682Z,304.61
2019-03-22T04:25:30.702Z,305.15
2019-03-22T04:26:30.575Z,304.92
2019-03-22T04:27:30.571Z,305.07
2019-03-22T04:28:30.549Z,306.22
2019-03-22T04:29:30.545Z,306.85
2019-03-22T04:30:30.512Z,306.02
2019-03-22T04:31:30.538Z,305.71
2019-03-22T04:32:30.521Z,305.95
2019-03-22T04:33:30.502Z,306.49
2019-03-22T04:34:30.485Z,306.13
2019-03-22T04:35:30.483Z,306.16
2019-03-22T04:36:30.500Z,307.02
2019-03-22T04:37:30.437Z,305.84
2019-03-22T04:38:30.448Z,306.13
2019-03-22T04:39:30.442Z,306.06
2019-03-22T04:40:30.441Z,305.98
2019-03-22T04:41:30.427Z,306.23
2019-03-22T04:42:30.386Z,306.24
2019-03-22T04:43:30.385Z,307.43
2019-03-22T04:44:30.367Z,306.70
2019-03-22T04:45:30.362Z,306.94
2019-03-22T04:46:30.360Z,306.14
2019-03-22T04:47:30.367Z,306.10
2019-03-22T04:48:30.321Z,305.48
2019-03-22T04:49:30.363Z,305.73
2019-03-22T04:50:30.318Z,306.59
2019-03-22T04:51:30.316Z,306.58
2019-03-22T04:52:30.328Z,306.55
2019-03-22T04:53:30.273Z,305.58
2019-03-22T04:54:30.278Z,306.90
2019-03-22T04:55:30.264Z,306.95
2019-03-22T04:56:30.265Z,308.12
2019-03-22T04:57:30.246Z,308.30
2019-03-22T04:58:30.232Z,307.38
2019-03-22T04:59:30.213Z,307.17
2019-03-22T05:00:30.207Z,306.25
2019-03-22T05:01:30.195Z,306.97
2019-03-22T05:02:30.224Z,307.39
2019-03-22T05:03:30.184Z,307.10
2019-03-22T05:04:30.161Z,306.67
2019-03-22T05:05:30.153Z,307.46
2019-03-22T05:06:30.142Z,307.22
2019-03-22T05:07:30.164Z,307.34
2019-03-22T05:08:30.122Z,308.21
2019-03-22T05:09:30.107Z,308.14
2019-03-22T05:10:30.105Z,307.71
2019-03-22T05:11:30.093Z,306.86
2019-03-22T05:12:30.098Z,306.79
2019-03-22T05:13:30.080Z,308.39
2019-03-22T05:14:30.047Z,307.91
2019-03-22T05:15:30.045Z,307.53
2019-03-22T05:16:30.032Z,307.79
2019-03-22T05:17:30.025Z,308.29
2019-03-22T05:18:30.066Z,308.02
2019-03-22T05:19:30.083Z,307.88
2019-03-22T05:20:29.990Z,307.18
2019-03-22T05:21:29.993Z,306.84
2019-03-22T05:22:29.981Z,307.02
2019-03-22T05:23:29.987Z,307.52
2019-03-22T05:24:30.101Z,308.16
2019-03-22T05:25:30.061Z,307.37
2019-03-22T05:26:29.977Z,307.65
2019-03-22T05:27:30.829Z,306.88
2019-03-22T05:28:30.854Z,307.80
2019-03-22T05:29:30.992Z,307.76
2019-03-22T05:30:29.925Z,307.63
2019-03-22T05:31:29.978Z,308.05
2019-03-22T05:32:30.020Z,307.61
2019-03-22T05:33:30.083Z,307.84
2019-03-22T05:34:29.966Z,307.18
2019-03-22T05:35:29.935Z,306.29
2019-03-22T05:36:29.949Z,305.87
2019-03-22T05:37:29.825Z,306.29
2019-03-22T05:38:29.819Z,306.24
2019-03-22T05:39:29.794Z,307.02
2019-03-22T05:40:29.861Z,306.36
2019-03-22T05:41:29.781Z,306.60
2019-03-22T05:42:29.770Z,306.85
2019-03-22T05:43:29.751Z,306.59
2019-03-22T05:44:29.753Z,306.35
2019-03-22T05:45:29.811Z,307.38
2019-03-22T05:46:30.060Z,306.52
2019-03-22T05:47:29.805Z,306.33
2019-03-22T05:48:29.876Z,306.02
2019-03-22T05:49:29.753Z,305.78
2019-03-22T05:50:29.856Z,306.31
2019-03-22T05:51:29.848Z,306.51
2019-03-22T05:52:29.758Z,305.83
2019-03-22T05:53:29.677Z,305.80
2019-03-22T05:54:29.641Z,305.81
2019-03-22T05:55:29.692Z,306.26
2019-03-22T05:56:29.687Z,305.66
2019-03-22T05:57:29.700Z,306.74
2019-03-22T05:58:29.740Z,306.11
2019-03-22T05:59:37.681Z,306.22
2019-03-22T06:00:30.566Z,306.43
2019-03-22T06:01:29.640Z,306.92
2019-03-22T06:02:29.543Z,307.39
2019-03-22T06:03:29.541Z,306.69
2019-03-22T06:04:29.516Z,307.38
2019-03-22T06:05:29.510Z,307.03
2019-03-22T06:06:29.565Z,307.53
2019-03-22T06:07:29.500Z,307.67
2019-03-22T06:08:29.480Z,307.44
2019-03-22T06:09:29.476Z,307.50
2019-03-22T06:10:29.465Z,307.50
2019-03-22T06:11:29.451Z,307.95
2019-03-22T06:12:29.460Z,307.45
2019-03-22T06:13:29.439Z,307.88
2019-03-22T06:14:29.419Z,307.76
2019-03-22T06:15:29.415Z,307.83
2019-03-22T06:16:29.395Z,307.39
2019-03-22T06:17:29.411Z,307.21
2019-03-22T06:18:29.380Z,307.31
2019-03-22T06:19:29.380Z,307.42
2019-03-22T06:20:29.380Z,307.85
2019-03-22T06:21:29.383Z,307.71
2019-03-22T06:22:29.348Z,308.14
2019-03-22T06:23:29.347Z,307.82
2019-03-22T06:24:29.347Z,307.08
2019-03-22T06:25:29.313Z,307.39
2019-03-22T06:26:29.283Z,308.22
2019-03-22T06:27:29.307Z,307.41
2019-03-22T06:28:29.286Z,307.29
2019-03-22T06:29:29.292Z,308.58
2019-03-22T06:30:29.268Z,308.04
2019-03-22T06:31:29.258Z,308.35
2019-03-22T06:32:29.223Z,307.97
2019-03-22T06:33:29.241Z,307.30
2019-03-22T06:34:29.206Z,308.06
2019-03-22T06:35:29.207Z,306.96
2019-03-22T06:36:29.205Z,306.93
2019-03-22T06:37:29.816Z,307.52
2019-03-22T06:38:29.256Z,307.05
2019-03-22T06:39:29.161Z,306.51
2019-03-22T06:40:29.140Z,306.95
2019-03-22T06:41:29.257Z,305.69
2019-03-22T06:42:29.136Z,304.78
2019-03-22T06:43:29.109Z,304.83
2019-03-22T06:44:29.287Z,305.14
2019-03-22T06:45:29.077Z,306.10
2019-03-22T06:46:29.121Z,305.44
2019-03-22T06:47:29.103Z,305.71
2019-03-22T06:48:29.074Z,304.84
2019-03-22T06:49:29.045Z,304.53
2019-03-22T06:50:29.040Z,304.45
2019-03-22T06:51:29.023Z,304.75
2019-03-22T06:52:29.023Z,304.35
2019-03-22T06:53:29.044Z,304.58
2019-03-22T06:54:31.770Z,304.81
2019-03-22T06:55:29.029Z,304.64
2019-03-22T06:56:29.014Z,304.83
2019-03-22T06:57:28.958Z,305.25
2019-03-22T06:58:29.828Z,306.95
2019-03-22T06:59:28.950Z,305.69
2019-03-22T07:00:28.927Z,305.54
2019-03-22T07:01:28.939Z,304.56
2019-03-22T07:02:28.930Z,304.93
2019-03-22T07:03:28.907Z,304.53
2019-03-22T07:04:28.884Z,304.72
2019-03-22T07:05:28.877Z,303.90
2019-03-22T07:06:28.887Z,304.14
2019-03-22T07:07:28.924Z,304.07
2019-03-22T07:08:28.834Z,303.83
2019-03-22T07:09:28.836Z,304.43
2019-03-22T07:10:28.929Z,304.37
2019-03-22T07:11:28.814Z,304.11
2019-03-22T07:12:28.802Z,304.08
2019-03-22T07:13:28.788Z,304.41
2019-03-22T07:14:28.788Z,304.33
2019-03-22T07:15:28.791Z,304.33
2019-03-22T07:16:28.817Z,304.56
2019-03-22T07:17:28.789Z,305.00
2019-03-22T07:18:28.733Z,304.44
2019-03-22T07:19:28.736Z,304.48
2019-03-22T07:20:28.714Z,304.12
2019-03-22T07:21:28.701Z,304.27
2019-03-22T07:22:28.817Z,304.27
2019-03-22T07:23:28.798Z,304.54
2019-03-22T07:24:28.726Z,303.51
2019-03-22T07:25:28.669Z,304.08
2019-03-22T07:26:30.101Z,303.75
2019-03-22T07:27:28.678Z,303.65
2019-03-22T07:28:28.634Z,304.07
2019-03-22T07:29:28.626Z,303.53
2019-03-22T07:30:28.603Z,303.38
2019-03-22T07:31:28.605Z,303.85
2019-03-22T07:32:28.609Z,304.03
2019-03-22T07:33:29.384Z,303.91
2019-03-22T07:34:28.776Z,303.63
2019-03-22T07:35:28.551Z,303.46
2019-03-22T07:36:28.555Z,303.81
2019-03-22T07:37:28.531Z,303.93
2019-03-22T07:38:29.800Z,303.80
2019-03-22T07:39:29.329Z,304.63
2019-03-22T07:40:28.506Z,303.98
2019-03-22T07:41:28.516Z,304.09
2019-03-22T07:42:28.516Z,304.47
2019-03-22T07:43:28.466Z,303.92
2019-03-22T07:44:28.477Z,304.05
2019-03-22T07:45:28.447Z,303.85
2019-03-22T07:46:28.448Z,304.20
2019-03-22T07:47:29.474Z,304.18
2019-03-22T07:48:28.429Z,303.86
2019-03-22T07:49:28.404Z,304.63
2019-03-22T07:50:28.422Z,304.34
2019-03-22T07:51:28.406Z,304.15
2019-03-22T07:52:28.434Z,304.12
2019-03-22T07:53:28.366Z,304.35
2019-03-22T07:54:28.415Z,304.43
2019-03-22T07:55:28.348Z,303.78
2019-03-22T07:56:28.317Z,304.10
2019-03-22T07:57:28.342Z,303.64
2019-03-22T07:58:28.318Z,303.58
2019-03-22T07:59:28.303Z,303.61
2019-03-22T08:00:31.003Z,304.09
2019-03-22T08:01:28.291Z,304.47
2019-03-22T08:02:28.262Z,304.49
2019-03-22T08:03:28.263Z,303.83
2019-03-22T08:04:28.372Z,304.26
2019-03-22T08:05:28.293Z,304.33
2019-03-22T08:06:28.248Z,304.70
2019-03-22T08:07:28.233Z,304.20
2019-03-22T08:08:28.209Z,304.11
2019-03-22T08:09:28.208Z,303.95
2019-03-22T08:10:28.272Z,303.98
2019-03-22T08:11:28.248Z,304.08
2019-03-22T08:12:28.165Z,303.94
2019-03-22T08:13:28.167Z,303.97
2019-03-22T08:14:28.165Z,304.15
2019-03-22T08:15:28.123Z,304.06
2019-03-22T08:16:28.218Z,304.33
2019-03-22T08:17:28.107Z,304.58
2019-03-22T08:18:28.227Z,304.83
2019-03-22T08:19:28.146Z,304.23
2019-03-22T08:20:28.149Z,303.95
2019-03-22T08:21:28.091Z,304.08
2019-03-22T08:22:31.486Z,304.31
2019-03-22T08:23:28.094Z,304.27
2019-03-22T08:24:28.073Z,304.56
2019-03-22T08:25:28.263Z,304.10
2019-03-22T08:26:28.044Z,304.26
2019-03-22T08:27:28.053Z,304.64
2019-03-22T08:28:28.020Z,304.46
2019-03-22T08:29:28.206Z,304.45
2019-03-22T08:30:27.972Z,304.49
2019-03-22T08:31:27.944Z,304.65
2019-03-22T08:32:28.020Z,304.71
2019-03-22T08:33:28.053Z,304.42
2019-03-22T08:34:27.938Z,304.95
2019-03-22T08:35:27.921Z,304.69
2019-03-22T08:36:27.899Z,305.01
2019-03-22T08:37:27.904Z,304.88
2019-03-22T08:38:27.912Z,304.65
2019-03-22T08:39:27.928Z,304.66
2019-03-22T08:40:30.185Z,305.04
2019-03-22T08:41:28.846Z,304.94
2019-03-22T08:42:27.839Z,304.80
2019-03-22T08:43:27.915Z,304.78
2019-03-22T08:44:27.867Z,305.11
2019-03-22T08:45:29.760Z,305.01
2019-03-22T08:46:27.864Z,304.66
2019-03-22T08:47:33.752Z,304.64
2019-03-22T08:48:28.816Z,305.12
2019-03-22T08:49:27.877Z,305.17
2019-03-22T08:50:27.751Z,305.31
2019-03-22T08:51:29.882Z,305.41
2019-03-22T08:52:27.729Z,304.90
2019-03-22T08:53:27.718Z,305.03
2019-03-22T08:54:27.773Z,305.13
2019-03-22T08:55:27.713Z,305.22
2019-03-22T08:56:27.690Z,305.47
2019-03-22T08:57:27.705Z,305.32
2019-03-22T08:58:27.688Z,305.06
2019-03-22T08:59:27.706Z,304.94
2019-03-22T09:00:38.523Z,305.17
2019-03-22T09:01:28.628Z,305.73
2019-03-22T09:02:27.653Z,305.51
2019-03-22T09:03:27.616Z,305.35
2019-03-22T09:04:27.693Z,305.32
2019-03-22T09:05:27.599Z,305.30
2019-03-22T09:06:27.589Z,305.81
2019-03-22T09:07:27.617Z,305.95
2019-03-22T09:08:27.567Z,305.36
2019-03-22T09:09:27.596Z,306.00
2019-03-22T09:10:27.651Z,305.76
2019-03-22T09:11:27.590Z,305.99
2019-03-22T09:12:27.601Z,306.02
2019-03-22T09:13:27.517Z,306.66
2019-03-22T09:14:27.527Z,307.00
2019-03-22T09:15:40.217Z,307.46
2019-03-22T09:16:30.735Z,307.38
2019-03-22T09:17:27.517Z,306.86
2019-03-22T09:18:27.541Z,306.74
2019-03-22T09:19:27.488Z,306.76
2019-03-22T09:20:27.518Z,307.29
2019-03-22T09:21:27.435Z,306.57
2019-03-22T09:22:27.463Z,306.54
2019-03-22T09:23:27.425Z,306.33
2019-03-22T09:24:38.551Z,306.23
2019-03-22T09:25:28.380Z,306.20
2019-03-22T09:26:27.380Z,307.41
2019-03-22T09:27:27.382Z,307.18
2019-03-22T09:28:27.363Z,307.18
2019-03-22T09:29:27.427Z,306.81
2019-03-22T09:30:27.348Z,306.48
2019-03-22T09:31:27.389Z,306.60
2019-03-22T09:32:27.346Z,306.49
2019-03-22T09:33:27.329Z,306.53
2019-03-22T09:34:33.522Z,306.88
2019-03-22T09:35:28.429Z,306.26
2019-03-22T09:36:27.302Z,306.78
2019-03-22T09:37:27.265Z,306.51
2019-03-22T09:38:28.589Z,306.81
2019-03-22T09:39:27.277Z,306.34
2019-03-22T09:40:27.337Z,306.42
2019-03-22T09:41:27.194Z,306.41
2019-03-22T09:42:27.360Z,306.26
2019-03-22T09:43:27.371Z,306.59
2019-03-22T09:44:28.358Z,306.13
2019-03-22T09:45:27.185Z,306.28
2019-03-22T09:46:27.154Z,306.62
2019-03-22T09:47:27.168Z,306.44
2019-03-22T09:48:27.152Z,306.78
2019-03-22T09:49:27.121Z,306.86
2019-03-22T09:50:27.139Z,306.27
2019-03-22T09:51:27.102Z,306.61
2019-03-22T09:52:27.126Z,306.96
2019-03-22T09:53:30.162Z,307.20
2019-03-22T09:54:27.070Z,307.11
2019-03-22T09:55:27.074Z,307.22
2019-03-22T09:56:27.090Z,307.03
2019-03-22T09:57:27.059Z,307.01
2019-03-22T09:58:27.250Z,307.04
2019-03-22T09:59:26.998Z,306.69
2019-03-22T10:00:27.020Z,307.37
2019-03-22T10:01:27.102Z,307.33
2019-03-22T10:02:26.998Z,307.45
2019-03-22T10:03:27.055Z,307.96
2019-03-22T10:04:27.005Z,307.58
2019-03-22T10:05:27.042Z,308.13
2019-03-22T10:06:26.966Z,307.55
2019-03-22T10:07:26.954Z,307.77
2019-03-22T10:08:26.976Z,307.33
2019-03-22T10:09:26.960Z,308.12
2019-03-22T10:10:26.913Z,307.99
2019-03-22T10:11:26.907Z,307.07
2019-03-22T10:12:26.883Z,307.28
2019-03-22T10:13:26.885Z,307.27
2019-03-22T10:14:26.954Z,307.59
2019-03-22T10:15:26.883Z,306.85
2019-03-22T10:16:26.832Z,307.56
2019-03-22T10:17:26.848Z,307.38
2019-03-22T10:18:26.859Z,306.75
2019-03-22T10:19:26.799Z,307.14
2019-03-22T10:20:26.850Z,307.33
2019-03-22T10:21:26.780Z,307.12
2019-03-22T10:22:26.775Z,306.71
2019-03-22T10:23:26.753Z,307.01
2019-03-22T10:24:26.771Z,306.86
2019-03-22T10:25:26.793Z,307.25
2019-03-22T10:26:26.766Z,306.56
2019-03-22T10:27:26.733Z,306.94
2019-03-22T10:28:26.742Z,306.73
2019-03-22T10:29:26.699Z,306.63
2019-03-22T10:30:26.809Z,307.01
2019-03-22T10:31:36.494Z,307.17
2019-03-22T10:32:27.662Z,306.98
2019-03-22T10:33:26.646Z,306.85
2019-03-22T10:34:26.720Z,306.74
2019-03-22T10:35:26.826Z,306.85
2019-03-22T10:36:26.611Z,306.88
2019-03-22T10:37:26.607Z,307.30
2019-03-22T10:38:31.873Z,306.88
2019-03-22T10:39:27.680Z,307.25
2019-03-22T10:40:26.580Z,307.29
2019-03-22T10:41:26.578Z,307.85
2019-03-22T10:42:26.549Z,307.54
2019-03-22T10:43:26.656Z,307.57
2019-03-22T10:44:26.554Z,307.96
2019-03-22T10:45:26.546Z,308.02
2019-03-22T10:46:26.726Z,307.97
2019-03-22T10:47:26.493Z,308.49
2019-03-22T10:48:26.484Z,308.12
2019-03-22T10:49:26.476Z,307.13
2019-03-22T10:50:26.550Z,307.17
2019-03-22T10:51:26.611Z,308.03
2019-03-22T10:52:27.602Z,307.71
2019-03-22T10:53:26.451Z,307.38
2019-03-22T10:54:26.438Z,307.60
2019-03-22T10:55:30.377Z,307.44
2019-03-22T10:56:26.484Z,307.07
2019-03-22T10:57:26.396Z,308.02
2019-03-22T10:58:27.378Z,307.29
2019-03-22T10:59:26.436Z,307.69
2019-03-22T11:00:26.356Z,307.42
2019-03-22T11:01:26.342Z,307.70
2019-03-22T11:02:26.365Z,306.98
2019-03-22T11:03:26.343Z,307.23
2019-03-22T11:04:26.342Z,307.77
2019-03-22T11:05:26.338Z,307.37
2019-03-22T11:06:26.795Z,307.33
2019-03-22T11:07:26.283Z,306.92
2019-03-22T11:08:26.372Z,306.90
2019-03-22T11:09:26.255Z,306.77
2019-03-22T11:10:26.263Z,306.53
2019-03-22T11:11:26.262Z,307.55
2019-03-22T11:12:26.226Z,307.96
2019-03-22T11:13:26.227Z,307.69
2019-03-22T11:14:26.233Z,306.58
2019-03-22T11:15:26.187Z,307.13
2019-03-22T11:16:26.189Z,307.01
2019-03-22T11:17:26.191Z,307.20
2019-03-22T11:18:26.304Z,307.23
2019-03-22T11:19:26.143Z,307.00
2019-03-22T11:20:26.148Z,307.33
2019-03-22T11:21:26.154Z,307.20
2019-03-22T11:22:26.120Z,307.09
2019-03-22T11:23:26.288Z,307.33
2019-03-22T11:24:26.122Z,306.99
2019-03-22T11:25:26.077Z,306.48
2019-03-22T11:26:26.100Z,307.00
2019-03-22T11:27:26.203Z,306.91
2019-03-22T11:28:26.043Z,307.54
2019-03-22T11:29:26.080Z,306.82
2019-03-22T11:30:26.062Z,307.55
2019-03-22T11:31:28.635Z,308.27
2019-03-22T11:32:26.014Z,308.07
2019-03-22T11:33:25.991Z,307.52
2019-03-22T11:34:26.005Z,307.59
2019-03-22T11:35:25.982Z,306.70
2019-03-22T11:36:25.988Z,307.30
2019-03-22T11:37:25.957Z,306.73
2019-03-22T11:38:25.970Z,307.20
2019-03-22T11:39:25.975Z,307.53
2019-03-22T11:40:25.953Z,307.16
2019-03-22T11:41:25.936Z,307.37
2019-03-22T11:42:25.928Z,307.35
2019-03-22T11:43:25.886Z,307.74
2019-03-22T11:44:25.914Z,307.53
2019-03-22T11:45:25.912Z,307.23
2019-03-22T11:46:25.865Z,307.25
2019-03-22T11:47:25.850Z,306.89
2019-03-22T11:48:25.859Z,306.70
2019-03-22T11:49:25.856Z,306.60
2019-03-22T11:50:25.844Z,306.46
2019-03-22T11:51:25.855Z,306.58
2019-03-22T11:52:25.833Z,306.72
2019-03-22T11:53:25.836Z,306.08
2019-03-22T11:54:25.849Z,306.82
2019-03-22T11:55:25.759Z,306.21
2019-03-22T11:56:25.837Z,306.36
2019-03-22T11:57:25.766Z,306.80
2019-03-22T11:58:25.744Z,306.57
2019-03-22T11:59:25.744Z,306.41
2019-03-22T12:00:25.721Z,306.97
2019-03-22T12:01:25.712Z,306.50
2019-03-22T12:02:25.739Z,306.86
2019-03-22T12:03:25.684Z,306.46
2019-03-22T12:04:25.661Z,306.60
2019-03-22T12:05:25.687Z,306.73
2019-03-22T12:06:27.294Z,306.50
2019-03-22T12:07:25.627Z,306.42
2019-03-22T12:08:25.676Z,306.09
2019-03-22T12:09:25.626Z,306.68
2019-03-22T12:10:25.611Z,306.67
2019-03-22T12:11:25.586Z,306.24
2019-03-22T12:12:25.631Z,306.11
2019-03-22T12:13:25.630Z,306.04
2019-03-22T12:14:25.574Z,306.38
2019-03-22T12:15:25.576Z,306.25
2019-03-22T12:16:25.585Z,306.54
2019-03-22T12:17:25.517Z,306.30
2019-03-22T12:18:25.541Z,306.67
2019-03-22T12:19:25.695Z,306.95
2019-03-22T12:20:25.556Z,306.96
2019-03-22T12:21:25.574Z,306.76
2019-03-22T12:22:25.577Z,306.60
2019-03-22T12:23:25.484Z,306.43
2019-03-22T12:24:25.476Z,306.38
2019-03-22T12:25:25.497Z,306.32
2019-03-22T12:26:25.415Z,306.08
2019-03-22T12:27:25.433Z,305.70
2019-03-22T12:28:25.440Z,306.31